sensor_id;sensor_type;location;lat;lon;timestamp;P1;durP1;ratioP1;P2;durP2;ratioP2
23682;SDS011;24897;53.514;10.482;2022-09-12T00:00:18;31.23;;;28.03;;
23682;SDS011;24897;53.514;10.482;2022-09-12T00:03:03;30.50;;;27.40;;
23682;SDS011;24897;53.514;10.482;2022-09-12T00:05:47;30.67;;;27.57;;
23682;SDS011;24897;53.514;10.482;2022-09-12T00:08:32;30.80;;;27.67;;
23682;SDS011;24897;53.514;10.482;2022-09-12T00:11:16;29.53;;;26.33;;
23682;SDS011;24897;53.514;10.482;2022-09-12T00:14:00;30.57;;;27.37;;
23682;SDS011;24897;53.514;10.482;2022-09-12T00:16:45;29.87;;;26.87;;
23682;SDS011;24897;53.514;10.482;2022-09-12T00:19:30;30.97;;;27.77;;
23682;SDS011;24897;53.514;10.482;2022-09-12T00:22:14;30.03;;;26.80;;
23682;SDS011;24897;53.514;10.482;2022-09-12T00:24:58;30.80;;;27.60;;
23682;SDS011;24897;53.514;10.482;2022-09-12T00:27:43;30.47;;;27.17;;
23682;SDS011;24897;53.514;10.482;2022-09-12T00:30:27;30.53;;;27.43;;
23682;SDS011;24897;53.514;10.482;2022-09-12T00:33:11;29.97;;;26.77;;
23682;SDS011;24897;53.514;10.482;2022-09-12T00:35:56;29.50;;;26.40;;
23682;SDS011;24897;53.514;10.482;2022-09-12T00:38:41;29.87;;;26.87;;
23682;SDS011;24897;53.514;10.482;2022-09-12T00:41:30;30.30;;;27.10;;
23682;SDS011;24897;53.514;10.482;2022-09-12T00:47:05;29.37;;;26.30;;
23682;SDS011;24897;53.514;10.482;2022-09-12T00:50:03;30.73;;;27.53;;
23682;SDS011;24897;53.514;10.482;2022-09-12T00:52:57;30.83;;;27.63;;
23682;SDS011;24897;53.514;10.482;2022-09-12T00:55:46;29.93;;;26.93;;
23682;SDS011;24897;53.514;10.482;2022-09-12T00:58:39;33.80;;;30.10;;
23682;SDS011;24897;53.514;10.482;2022-09-12T01:01:28;33.13;;;29.57;;
23682;SDS011;24897;53.514;10.482;2022-09-12T01:04:12;32.77;;;29.37;;
23682;SDS011;24897;53.514;10.482;2022-09-12T01:06:56;31.73;;;28.40;;
23682;SDS011;24897;53.514;10.482;2022-09-12T01:09:41;30.10;;;26.90;;
23682;SDS011;24897;53.514;10.482;2022-09-12T01:12:27;30.23;;;27.03;;
23682;SDS011;24897;53.514;10.482;2022-09-12T01:15:12;30.27;;;27.17;;
23682;SDS011;24897;53.514;10.482;2022-09-12T01:18:12;29.67;;;26.67;;
23682;SDS011;24897;53.514;10.482;2022-09-12T01:28:13;29.73;;;26.73;;
23682;SDS011;24897;53.514;10.482;2022-09-12T01:34:26;29.77;;;26.77;;
23682;SDS011;24897;53.514;10.482;2022-09-12T01:37:16;29.43;;;26.40;;
23682;SDS011;24897;53.514;10.482;2022-09-12T01:40:10;30.07;;;26.97;;
23682;SDS011;24897;53.514;10.482;2022-09-12T01:45:57;30.43;;;27.23;;
23682;SDS011;24897;53.514;10.482;2022-09-12T01:49:01;31.97;;;27.87;;
23682;SDS011;24897;53.514;10.482;2022-09-12T01:57:56;30.80;;;27.60;;
23682;SDS011;24897;53.514;10.482;2022-09-12T02:00:51;30.70;;;27.60;;
23682;SDS011;24897;53.514;10.482;2022-09-12T02:04:27;29.77;;;26.67;;
23682;SDS011;24897;53.514;10.482;2022-09-12T02:06:53;30.40;;;27.20;;
23682;SDS011;24897;53.514;10.482;2022-09-12T02:09:56;29.83;;;26.70;;
23682;SDS011;24897;53.514;10.482;2022-09-12T02:12:46;29.67;;;26.57;;
23682;SDS011;24897;53.514;10.482;2022-09-12T02:15:33;29.57;;;26.47;;
23682;SDS011;24897;53.514;10.482;2022-09-12T02:18:22;29.80;;;26.53;;
23682;SDS011;24897;53.514;10.482;2022-09-12T02:21:10;29.17;;;26.07;;
23682;SDS011;24897;53.514;10.482;2022-09-12T02:23:56;30.83;;;27.63;;
23682;SDS011;24897;53.514;10.482;2022-09-12T02:26:55;30.47;;;27.27;;
23682;SDS011;24897;53.514;10.482;2022-09-12T02:29:46;29.37;;;26.33;;
23682;SDS011;24897;53.514;10.482;2022-09-12T02:32:42;30.80;;;26.83;;
23682;SDS011;24897;53.514;10.482;2022-09-12T02:35:38;29.03;;;25.93;;
23682;SDS011;24897;53.514;10.482;2022-09-12T02:38:27;30.53;;;27.33;;
23682;SDS011;24897;53.514;10.482;2022-09-12T02:41:17;29.33;;;26.27;;
23682;SDS011;24897;53.514;10.482;2022-09-12T02:44:03;29.47;;;26.37;;
23682;SDS011;24897;53.514;10.482;2022-09-12T02:46:49;29.77;;;26.77;;
23682;SDS011;24897;53.514;10.482;2022-09-12T02:49:38;30.43;;;27.33;;
23682;SDS011;24897;53.514;10.482;2022-09-12T02:52:22;29.67;;;26.60;;
23682;SDS011;24897;53.514;10.482;2022-09-12T02:55:08;30.20;;;27.00;;
23682;SDS011;24897;53.514;10.482;2022-09-12T02:57:54;29.00;;;26.00;;
23682;SDS011;24897;53.514;10.482;2022-09-12T03:00:49;29.27;;;26.17;;
23682;SDS011;24897;53.514;10.482;2022-09-12T03:03:51;30.60;;;27.33;;
23682;SDS011;24897;53.514;10.482;2022-09-12T03:10:09;30.57;;;27.33;;
23682;SDS011;24897;53.514;10.482;2022-09-12T03:16:26;30.13;;;27.07;;
23682;SDS011;24897;53.514;10.482;2022-09-12T03:22:52;30.53;;;27.43;;
23682;SDS011;24897;53.514;10.482;2022-09-12T03:25:50;29.30;;;26.30;;
23682;SDS011;24897;53.514;10.482;2022-09-12T03:28:39;30.03;;;26.83;;
23682;SDS011;24897;53.514;10.482;2022-09-12T03:31:26;29.73;;;26.73;;
23682;SDS011;24897;53.514;10.482;2022-09-12T03:34:10;31.13;;;27.93;;
23682;SDS011;24897;53.514;10.482;2022-09-12T03:36:56;30.43;;;27.20;;
23682;SDS011;24897;53.514;10.482;2022-09-12T03:39:40;30.50;;;26.73;;
23682;SDS011;24897;53.514;10.482;2022-09-12T03:42:24;29.40;;;26.40;;
23682;SDS011;24897;53.514;10.482;2022-09-12T03:45:09;28.90;;;25.90;;
23682;SDS011;24897;53.514;10.482;2022-09-12T03:47:53;28.90;;;25.80;;
23682;SDS011;24897;53.514;10.482;2022-09-12T03:50:38;29.10;;;25.97;;
23682;SDS011;24897;53.514;10.482;2022-09-12T03:53:22;28.53;;;25.63;;
23682;SDS011;24897;53.514;10.482;2022-09-12T03:56:07;29.00;;;25.90;;
23682;SDS011;24897;53.514;10.482;2022-09-12T03:58:52;28.30;;;25.40;;
23682;SDS011;24897;53.514;10.482;2022-09-12T04:01:36;28.73;;;25.77;;
23682;SDS011;24897;53.514;10.482;2022-09-12T04:04:21;29.00;;;26.10;;
23682;SDS011;24897;53.514;10.482;2022-09-12T04:07:05;29.97;;;26.87;;
23682;SDS011;24897;53.514;10.482;2022-09-12T04:09:49;30.00;;;27.00;;
23682;SDS011;24897;53.514;10.482;2022-09-12T04:12:33;29.37;;;26.37;;
23682;SDS011;24897;53.514;10.482;2022-09-12T04:15:18;30.43;;;27.43;;
23682;SDS011;24897;53.514;10.482;2022-09-12T04:18:02;28.70;;;25.80;;
23682;SDS011;24897;53.514;10.482;2022-09-12T04:20:46;29.80;;;26.80;;
23682;SDS011;24897;53.514;10.482;2022-09-12T04:23:30;28.43;;;25.37;;
23682;SDS011;24897;53.514;10.482;2022-09-12T04:26:15;28.97;;;26.07;;
23682;SDS011;24897;53.514;10.482;2022-09-12T04:29:00;29.13;;;25.87;;
23682;SDS011;24897;53.514;10.482;2022-09-12T04:31:44;29.00;;;26.10;;
23682;SDS011;24897;53.514;10.482;2022-09-12T04:34:29;29.23;;;26.23;;
23682;SDS011;24897;53.514;10.482;2022-09-12T04:37:14;29.57;;;26.50;;
23682;SDS011;24897;53.514;10.482;2022-09-12T04:39:59;30.10;;;26.83;;
23682;SDS011;24897;53.514;10.482;2022-09-12T04:42:44;29.13;;;26.13;;
23682;SDS011;24897;53.514;10.482;2022-09-12T04:45:27;29.17;;;26.17;;
23682;SDS011;24897;53.514;10.482;2022-09-12T04:48:12;29.30;;;26.30;;
23682;SDS011;24897;53.514;10.482;2022-09-12T04:51:04;29.80;;;26.77;;
23682;SDS011;24897;53.514;10.482;2022-09-12T04:53:58;29.77;;;26.67;;
23682;SDS011;24897;53.514;10.482;2022-09-12T04:56:47;30.10;;;26.97;;
23682;SDS011;24897;53.514;10.482;2022-09-12T04:59:32;31.60;;;25.63;;
23682;SDS011;24897;53.514;10.482;2022-09-12T05:02:17;27.83;;;25.03;;
23682;SDS011;24897;53.514;10.482;2022-09-12T05:05:01;28.60;;;25.60;;
23682;SDS011;24897;53.514;10.482;2022-09-12T05:07:46;30.20;;;27.03;;
23682;SDS011;24897;53.514;10.482;2022-09-12T05:10:30;30.13;;;27.13;;
23682;SDS011;24897;53.514;10.482;2022-09-12T05:13:15;30.07;;;26.97;;
23682;SDS011;24897;53.514;10.482;2022-09-12T05:16:00;30.47;;;27.37;;
23682;SDS011;24897;53.514;10.482;2022-09-12T05:18:45;31.20;;;28.00;;
23682;SDS011;24897;53.514;10.482;2022-09-12T05:21:30;30.57;;;27.57;;
23682;SDS011;24897;53.514;10.482;2022-09-12T05:24:14;30.90;;;27.70;;
23682;SDS011;24897;53.514;10.482;2022-09-12T05:26:58;30.53;;;27.43;;
23682;SDS011;24897;53.514;10.482;2022-09-12T05:29:42;30.83;;;27.63;;
23682;SDS011;24897;53.514;10.482;2022-09-12T05:32:29;31.03;;;27.47;;
23682;SDS011;24897;53.514;10.482;2022-09-12T05:35:14;31.70;;;28.37;;
23682;SDS011;24897;53.514;10.482;2022-09-12T05:37:59;30.90;;;27.73;;
23682;SDS011;24897;53.514;10.482;2022-09-12T05:40:43;31.30;;;28.10;;
23682;SDS011;24897;53.514;10.482;2022-09-12T05:43:28;32.27;;;28.87;;
23682;SDS011;24897;53.514;10.482;2022-09-12T05:46:14;30.20;;;27.10;;
23682;SDS011;24897;53.514;10.482;2022-09-12T05:49:04;31.83;;;28.53;;
23682;SDS011;24897;53.514;10.482;2022-09-12T05:51:50;33.87;;;30.37;;
23682;SDS011;24897;53.514;10.482;2022-09-12T05:54:34;32.57;;;29.17;;
23682;SDS011;24897;53.514;10.482;2022-09-12T05:57:18;34.37;;;30.87;;
23682;SDS011;24897;53.514;10.482;2022-09-12T06:00:03;32.27;;;28.97;;
23682;SDS011;24897;53.514;10.482;2022-09-12T06:02:51;34.57;;;30.87;;
23682;SDS011;24897;53.514;10.482;2022-09-12T06:05:35;31.60;;;28.33;;
23682;SDS011;24897;53.514;10.482;2022-09-12T06:08:19;32.90;;;29.30;;
23682;SDS011;24897;53.514;10.482;2022-09-12T06:11:04;32.53;;;29.20;;
23682;SDS011;24897;53.514;10.482;2022-09-12T06:13:49;32.77;;;29.43;;
23682;SDS011;24897;53.514;10.482;2022-09-12T06:16:34;33.57;;;30.13;;
23682;SDS011;24897;53.514;10.482;2022-09-12T06:19:19;30.43;;;27.43;;
23682;SDS011;24897;53.514;10.482;2022-09-12T06:22:04;32.47;;;29.17;;
23682;SDS011;24897;53.514;10.482;2022-09-12T06:24:48;31.57;;;28.30;;
23682;SDS011;24897;53.514;10.482;2022-09-12T06:27:33;35.47;;;31.77;;
23682;SDS011;24897;53.514;10.482;2022-09-12T06:30:17;34.17;;;30.57;;
23682;SDS011;24897;53.514;10.482;2022-09-12T06:33:01;33.87;;;30.33;;
23682;SDS011;24897;53.514;10.482;2022-09-12T06:35:45;31.87;;;28.57;;
23682;SDS011;24897;53.514;10.482;2022-09-12T06:38:30;34.03;;;30.63;;
23682;SDS011;24897;53.514;10.482;2022-09-12T06:41:15;34.73;;;31.33;;
23682;SDS011;24897;53.514;10.482;2022-09-12T06:43:59;35.00;;;31.30;;
23682;SDS011;24897;53.514;10.482;2022-09-12T06:46:44;36.10;;;31.90;;
23682;SDS011;24897;53.514;10.482;2022-09-12T06:49:28;35.83;;;32.10;;
23682;SDS011;24897;53.514;10.482;2022-09-12T06:52:13;34.73;;;31.30;;
23682;SDS011;24897;53.514;10.482;2022-09-12T06:54:57;36.20;;;32.37;;
23682;SDS011;24897;53.514;10.482;2022-09-12T06:57:42;36.27;;;30.60;;
23682;SDS011;24897;53.514;10.482;2022-09-12T07:00:26;33.27;;;29.67;;
23682;SDS011;24897;53.514;10.482;2022-09-12T07:03:10;40.50;;;31.67;;
23682;SDS011;24897;53.514;10.482;2022-09-12T07:05:55;34.47;;;30.87;;
23682;SDS011;24897;53.514;10.482;2022-09-12T07:08:39;34.33;;;31.03;;
23682;SDS011;24897;53.514;10.482;2022-09-12T07:11:25;34.73;;;31.33;;
23682;SDS011;24897;53.514;10.482;2022-09-12T07:14:12;36.60;;;32.90;;
23682;SDS011;24897;53.514;10.482;2022-09-12T07:17:11;33.50;;;30.30;;
23682;SDS011;24897;53.514;10.482;2022-09-12T07:19:55;35.27;;;31.77;;
23682;SDS011;24897;53.514;10.482;2022-09-12T07:22:39;33.77;;;30.47;;
23682;SDS011;24897;53.514;10.482;2022-09-12T07:25:24;34.03;;;30.73;;
23682;SDS011;24897;53.514;10.482;2022-09-12T07:28:09;33.97;;;30.77;;
23682;SDS011;24897;53.514;10.482;2022-09-12T07:30:53;35.47;;;32.23;;
23682;SDS011;24897;53.514;10.482;2022-09-12T07:33:38;36.13;;;32.73;;
23682;SDS011;24897;53.514;10.482;2022-09-12T07:36:23;33.40;;;30.43;;
23682;SDS011;24897;53.514;10.482;2022-09-12T07:39:08;32.90;;;30.10;;
23682;SDS011;24897;53.514;10.482;2022-09-12T07:41:53;33.47;;;30.67;;
23682;SDS011;24897;53.514;10.482;2022-09-12T07:44:37;31.60;;;28.80;;
23682;SDS011;24897;53.514;10.482;2022-09-12T07:47:22;30.37;;;27.87;;
23682;SDS011;24897;53.514;10.482;2022-09-12T07:50:06;30.63;;;28.13;;
23682;SDS011;24897;53.514;10.482;2022-09-12T07:52:54;26.40;;;24.20;;
23682;SDS011;24897;53.514;10.482;2022-09-12T07:55:38;24.13;;;22.23;;
23682;SDS011;24897;53.514;10.482;2022-09-12T07:58:23;20.87;;;19.30;;
23682;SDS011;24897;53.514;10.482;2022-09-12T08:01:12;21.60;;;19.87;;
23682;SDS011;24897;53.514;10.482;2022-09-12T08:03:59;21.00;;;19.30;;
23682;SDS011;24897;53.514;10.482;2022-09-12T08:06:44;21.27;;;19.57;;
23682;SDS011;24897;53.514;10.482;2022-09-12T08:09:28;21.10;;;19.40;;
23682;SDS011;24897;53.514;10.482;2022-09-12T08:12:12;19.77;;;18.27;;
23682;SDS011;24897;53.514;10.482;2022-09-12T08:14:57;19.80;;;18.30;;
23682;SDS011;24897;53.514;10.482;2022-09-12T08:17:41;20.20;;;18.53;;
23682;SDS011;24897;53.514;10.482;2022-09-12T08:20:25;21.10;;;19.40;;
23682;SDS011;24897;53.514;10.482;2022-09-12T08:23:09;21.17;;;19.57;;
23682;SDS011;24897;53.514;10.482;2022-09-12T08:25:58;20.97;;;19.37;;
23682;SDS011;24897;53.514;10.482;2022-09-12T08:28:47;21.23;;;19.52;;
23682;SDS011;24897;53.514;10.482;2022-09-12T08:31:33;22.33;;;20.60;;
23682;SDS011;24897;53.514;10.482;2022-09-12T08:34:20;21.77;;;19.93;;
23682;SDS011;24897;53.514;10.482;2022-09-12T08:37:05;20.67;;;18.97;;
23682;SDS011;24897;53.514;10.482;2022-09-12T08:39:49;21.03;;;19.43;;
23682;SDS011;24897;53.514;10.482;2022-09-12T08:42:44;20.40;;;18.80;;
23682;SDS011;24897;53.514;10.482;2022-09-12T08:45:39;20.80;;;19.20;;
23682;SDS011;24897;53.514;10.482;2022-09-12T08:48:30;21.20;;;19.60;;
23682;SDS011;24897;53.514;10.482;2022-09-12T08:51:14;20.08;;;18.58;;
23682;SDS011;24897;53.514;10.482;2022-09-12T08:54:02;21.10;;;19.50;;
23682;SDS011;24897;53.514;10.482;2022-09-12T08:56:47;21.70;;;20.00;;
23682;SDS011;24897;53.514;10.482;2022-09-12T08:59:39;22.35;;;20.58;;
23682;SDS011;24897;53.514;10.482;2022-09-12T09:15:13;20.88;;;19.27;;
23682;SDS011;24897;53.514;10.482;2022-09-12T09:17:58;21.03;;;19.43;;
23682;SDS011;24897;53.514;10.482;2022-09-12T09:20:48;19.92;;;18.42;;
23682;SDS011;24897;53.514;10.482;2022-09-12T09:23:43;20.45;;;18.85;;
23682;SDS011;24897;53.514;10.482;2022-09-12T09:26:38;20.27;;;18.77;;
23682;SDS011;24897;53.514;10.482;2022-09-12T09:29:46;21.63;;;19.90;;
23682;SDS011;24897;53.514;10.482;2022-09-12T09:32:33;20.95;;;19.35;;
23682;SDS011;24897;53.514;10.482;2022-09-12T09:38:21;22.17;;;20.48;;
23682;SDS011;24897;53.514;10.482;2022-09-12T09:41:41;23.05;;;21.15;;
23682;SDS011;24897;53.514;10.482;2022-09-12T09:44:45;23.15;;;21.35;;
23682;SDS011;24897;53.514;10.482;2022-09-12T09:47:31;21.43;;;19.80;;
23682;SDS011;24897;53.514;10.482;2022-09-12T09:50:15;21.08;;;19.48;;
23682;SDS011;24897;53.514;10.482;2022-09-12T09:53:00;21.03;;;19.43;;
23682;SDS011;24897;53.514;10.482;2022-09-12T09:55:52;20.43;;;18.83;;
23682;SDS011;24897;53.514;10.482;2022-09-12T09:58:39;20.23;;;18.73;;
23682;SDS011;24897;53.514;10.482;2022-09-12T10:01:24;20.70;;;19.00;;
23682;SDS011;24897;53.514;10.482;2022-09-12T10:04:16;19.48;;;17.92;;
23682;SDS011;24897;53.514;10.482;2022-09-12T10:07:16;20.95;;;19.25;;
23682;SDS011;24897;53.514;10.482;2022-09-12T10:13:20;18.97;;;17.57;;
23682;SDS011;24897;53.514;10.482;2022-09-12T10:16:18;20.10;;;18.30;;
23682;SDS011;24897;53.514;10.482;2022-09-12T10:19:05;19.43;;;17.83;;
23682;SDS011;24897;53.514;10.482;2022-09-12T10:22:12;19.90;;;18.23;;
23682;SDS011;24897;53.514;10.482;2022-09-12T10:25:00;19.57;;;18.07;;
23682;SDS011;24897;53.514;10.482;2022-09-12T10:27:51;20.20;;;18.60;;
23682;SDS011;24897;53.514;10.482;2022-09-12T10:30:40;18.00;;;16.63;;
23682;SDS011;24897;53.514;10.482;2022-09-12T10:33:42;20.00;;;18.50;;
23682;SDS011;24897;53.514;10.482;2022-09-12T10:36:35;19.47;;;17.93;;
23682;SDS011;24897;53.514;10.482;2022-09-12T10:39:21;19.45;;;17.90;;
23682;SDS011;24897;53.514;10.482;2022-09-12T10:42:11;20.48;;;18.88;;
23682;SDS011;24897;53.514;10.482;2022-09-12T10:44:57;20.33;;;18.73;;
23682;SDS011;24897;53.514;10.482;2022-09-12T10:47:41;19.95;;;18.45;;
23682;SDS011;24897;53.514;10.482;2022-09-12T10:50:29;20.02;;;18.42;;
23682;SDS011;24897;53.514;10.482;2022-09-12T10:53:42;19.33;;;17.83;;
23682;SDS011;24897;53.514;10.482;2022-09-12T10:56:33;19.42;;;17.90;;
23682;SDS011;24897;53.514;10.482;2022-09-12T11:05:13;19.40;;;17.90;;
23682;SDS011;24897;53.514;10.482;2022-09-12T11:17:13;18.40;;;16.88;;
23682;SDS011;24897;53.514;10.482;2022-09-12T11:20:11;18.30;;;16.80;;
23682;SDS011;24897;53.514;10.482;2022-09-12T11:35:30;18.33;;;16.80;;
23682;SDS011;24897;53.514;10.482;2022-09-12T11:41:30;18.10;;;16.80;;
23682;SDS011;24897;53.514;10.482;2022-09-12T11:44:18;18.60;;;17.20;;
23682;SDS011;24897;53.514;10.482;2022-09-12T11:47:10;18.25;;;16.85;;
23682;SDS011;24897;53.514;10.482;2022-09-12T11:49:55;18.08;;;16.60;;
23682;SDS011;24897;53.514;10.482;2022-09-12T11:52:42;17.10;;;15.80;;
23682;SDS011;24897;53.514;10.482;2022-09-12T11:55:26;17.88;;;16.48;;
23682;SDS011;24897;53.514;10.482;2022-09-12T11:58:15;17.33;;;16.02;;
23682;SDS011;24897;53.514;10.482;2022-09-12T12:01:08;17.73;;;16.43;;
23682;SDS011;24897;53.514;10.482;2022-09-12T12:04:09;17.30;;;16.00;;
23682;SDS011;24897;53.514;10.482;2022-09-12T12:07:00;17.50;;;16.20;;
23682;SDS011;24897;53.514;10.482;2022-09-12T12:09:49;17.30;;;16.00;;
23682;SDS011;24897;53.514;10.482;2022-09-12T12:12:34;16.87;;;15.57;;
23682;SDS011;24897;53.514;10.482;2022-09-12T12:15:19;17.17;;;15.88;;
23682;SDS011;24897;53.514;10.482;2022-09-12T12:21:17;17.42;;;16.13;;
23682;SDS011;24897;53.514;10.482;2022-09-12T12:24:19;17.05;;;15.75;;
23682;SDS011;24897;53.514;10.482;2022-09-12T12:27:24;16.98;;;15.68;;
23682;SDS011;24897;53.514;10.482;2022-09-12T12:36:08;16.63;;;15.35;;
23682;SDS011;24897;53.514;10.482;2022-09-12T12:38:53;16.42;;;15.23;;
23682;SDS011;24897;53.514;10.482;2022-09-12T12:41:43;16.48;;;15.27;;
23682;SDS011;24897;53.514;10.482;2022-09-12T12:53:06;16.60;;;15.38;;
23682;SDS011;24897;53.514;10.482;2022-09-12T12:56:02;16.98;;;15.68;;
23682;SDS011;24897;53.514;10.482;2022-09-12T12:58:46;16.70;;;15.43;;
23682;SDS011;24897;53.514;10.482;2022-09-12T13:01:30;16.55;;;15.30;;
23682;SDS011;24897;53.514;10.482;2022-09-12T13:04:23;16.95;;;15.68;;
23682;SDS011;24897;53.514;10.482;2022-09-12T13:07:12;16.73;;;15.43;;
23682;SDS011;24897;53.514;10.482;2022-09-12T13:10:19;16.80;;;15.55;;
23682;SDS011;24897;53.514;10.482;2022-09-12T13:13:16;16.80;;;15.50;;
23682;SDS011;24897;53.514;10.482;2022-09-12T13:16:08;16.70;;;15.40;;
23682;SDS011;24897;53.514;10.482;2022-09-12T13:18:53;16.38;;;15.18;;
23682;SDS011;24897;53.514;10.482;2022-09-12T13:21:53;16.98;;;15.77;;
23682;SDS011;24897;53.514;10.482;2022-09-12T13:24:45;17.08;;;15.77;;
23682;SDS011;24897;53.514;10.482;2022-09-12T13:27:31;15.82;;;14.63;;
23682;SDS011;24897;53.514;10.482;2022-09-12T13:30:15;16.23;;;15.02;;
23682;SDS011;24897;53.514;10.482;2022-09-12T13:33:24;16.35;;;15.15;;
23682;SDS011;24897;53.514;10.482;2022-09-12T13:43:04;16.00;;;14.77;;
23682;SDS011;24897;53.514;10.482;2022-09-12T13:45:54;16.50;;;15.20;;
23682;SDS011;24897;53.514;10.482;2022-09-12T13:48:38;16.45;;;15.25;;
23682;SDS011;24897;53.514;10.482;2022-09-12T13:51:25;16.05;;;14.85;;
23682;SDS011;24897;53.514;10.482;2022-09-12T13:54:15;16.60;;;15.20;;
23682;SDS011;24897;53.514;10.482;2022-09-12T13:57:02;16.70;;;15.35;;
23682;SDS011;24897;53.514;10.482;2022-09-12T13:59:47;16.30;;;15.10;;
23682;SDS011;24897;53.514;10.482;2022-09-12T14:02:33;16.90;;;15.60;;
23682;SDS011;24897;53.514;10.482;2022-09-12T14:05:21;16.30;;;15.10;;
23682;SDS011;24897;53.514;10.482;2022-09-12T14:08:08;16.33;;;15.13;;
23682;SDS011;24897;53.514;10.482;2022-09-12T14:10:57;16.10;;;14.85;;
23682;SDS011;24897;53.514;10.482;2022-09-12T14:13:41;16.50;;;15.20;;
23682;SDS011;24897;53.514;10.482;2022-09-12T14:16:25;16.50;;;15.20;;
23682;SDS011;24897;53.514;10.482;2022-09-12T14:19:11;16.60;;;15.30;;
23682;SDS011;24897;53.514;10.482;2022-09-12T14:21:56;43.27;;;37.90;;
23682;SDS011;24897;53.514;10.482;2022-09-12T14:24:42;17.23;;;15.93;;
23682;SDS011;24897;53.514;10.482;2022-09-12T14:27:36;16.30;;;15.10;;
23682;SDS011;24897;53.514;10.482;2022-09-12T14:30:35;16.25;;;15.05;;
23682;SDS011;24897;53.514;10.482;2022-09-12T14:33:20;16.57;;;15.27;;
23682;SDS011;24897;53.514;10.482;2022-09-12T14:39:21;15.85;;;14.65;;
23682;SDS011;24897;53.514;10.482;2022-09-12T14:45:10;16.02;;;14.82;;
23682;SDS011;24897;53.514;10.482;2022-09-12T14:47:59;16.63;;;15.43;;
23682;SDS011;24897;53.514;10.482;2022-09-12T14:50:47;16.02;;;14.82;;
23682;SDS011;24897;53.514;10.482;2022-09-12T14:53:34;15.73;;;14.63;;
23682;SDS011;24897;53.514;10.482;2022-09-12T14:56:19;16.02;;;14.82;;
23682;SDS011;24897;53.514;10.482;2022-09-12T15:13:19;16.42;;;15.13;;
23682;SDS011;24897;53.514;10.482;2022-09-12T15:16:09;16.10;;;14.90;;
23682;SDS011;24897;53.514;10.482;2022-09-12T15:18:54;16.63;;;15.23;;
23682;SDS011;24897;53.514;10.482;2022-09-12T15:21:38;16.02;;;14.70;;
23682;SDS011;24897;53.514;10.482;2022-09-12T15:24:22;16.45;;;15.23;;
23682;SDS011;24897;53.514;10.482;2022-09-12T15:27:10;16.33;;;15.13;;
23682;SDS011;24897;53.514;10.482;2022-09-12T15:29:55;16.40;;;15.10;;
23682;SDS011;24897;53.514;10.482;2022-09-12T15:32:39;16.00;;;14.80;;
23682;SDS011;24897;53.514;10.482;2022-09-12T15:35:31;17.10;;;15.80;;
23682;SDS011;24897;53.514;10.482;2022-09-12T15:38:16;16.47;;;15.27;;
23682;SDS011;24897;53.514;10.482;2022-09-12T15:41:01;17.83;;;16.33;;
23682;SDS011;24897;53.514;10.482;2022-09-12T15:43:46;17.57;;;16.07;;
23682;SDS011;24897;53.514;10.482;2022-09-12T15:46:31;16.70;;;15.40;;
23682;SDS011;24897;53.514;10.482;2022-09-12T15:49:15;16.87;;;15.60;;
23682;SDS011;24897;53.514;10.482;2022-09-12T15:51:59;17.10;;;15.80;;
23682;SDS011;24897;53.514;10.482;2022-09-12T15:54:43;16.77;;;15.57;;
23682;SDS011;24897;53.514;10.482;2022-09-12T15:57:27;16.50;;;15.30;;
23682;SDS011;24897;53.514;10.482;2022-09-12T16:00:12;17.30;;;16.00;;
23682;SDS011;24897;53.514;10.482;2022-09-12T16:02:58;17.10;;;15.80;;
23682;SDS011;24897;53.514;10.482;2022-09-12T16:05:42;17.57;;;16.20;;
23682;SDS011;24897;53.514;10.482;2022-09-12T16:08:26;17.17;;;15.97;;
23682;SDS011;24897;53.514;10.482;2022-09-12T16:11:15;17.33;;;16.03;;
23682;SDS011;24897;53.514;10.482;2022-09-12T16:14:08;17.20;;;16.00;;
23682;SDS011;24897;53.514;10.482;2022-09-12T16:16:56;17.00;;;15.70;;
23682;SDS011;24897;53.514;10.482;2022-09-12T16:19:40;15.95;;;14.85;;
23682;SDS011;24897;53.514;10.482;2022-09-12T16:22:25;16.90;;;15.60;;
23682;SDS011;24897;53.514;10.482;2022-09-12T16:25:09;16.83;;;15.33;;
23682;SDS011;24897;53.514;10.482;2022-09-12T16:27:53;16.70;;;15.40;;
23682;SDS011;24897;53.514;10.482;2022-09-12T16:30:38;17.13;;;15.73;;
23682;SDS011;24897;53.514;10.482;2022-09-12T16:33:22;16.83;;;15.53;;
23682;SDS011;24897;53.514;10.482;2022-09-12T16:36:08;17.53;;;16.13;;
23682;SDS011;24897;53.514;10.482;2022-09-12T16:38:54;16.80;;;15.50;;
23682;SDS011;24897;53.514;10.482;2022-09-12T16:41:38;17.30;;;15.85;;
23682;SDS011;24897;53.514;10.482;2022-09-12T16:44:25;16.80;;;15.43;;
23682;SDS011;24897;53.514;10.482;2022-09-12T16:47:09;17.10;;;15.80;;
23682;SDS011;24897;53.514;10.482;2022-09-12T16:49:53;16.83;;;15.53;;
23682;SDS011;24897;53.514;10.482;2022-09-12T16:52:37;17.57;;;16.17;;
23682;SDS011;24897;53.514;10.482;2022-09-12T16:55:21;17.37;;;16.00;;
23682;SDS011;24897;53.514;10.482;2022-09-12T16:58:05;18.03;;;16.63;;
23682;SDS011;24897;53.514;10.482;2022-09-12T17:00:57;17.60;;;16.20;;
23682;SDS011;24897;53.514;10.482;2022-09-12T17:03:46;18.43;;;16.93;;
23682;SDS011;24897;53.514;10.482;2022-09-12T17:06:35;17.87;;;16.47;;
23682;SDS011;24897;53.514;10.482;2022-09-12T17:09:19;18.00;;;16.60;;
23682;SDS011;24897;53.514;10.482;2022-09-12T17:12:04;18.43;;;16.90;;
23682;SDS011;24897;53.514;10.482;2022-09-12T17:14:48;17.93;;;16.63;;
23682;SDS011;24897;53.514;10.482;2022-09-12T17:17:33;18.43;;;17.03;;
23682;SDS011;24897;53.514;10.482;2022-09-12T17:20:17;18.47;;;17.00;;
23682;SDS011;24897;53.514;10.482;2022-09-12T17:23:01;18.57;;;17.07;;
23682;SDS011;24897;53.514;10.482;2022-09-12T17:25:46;18.80;;;17.30;;
23682;SDS011;24897;53.514;10.482;2022-09-12T17:28:31;18.60;;;17.10;;
23682;SDS011;24897;53.514;10.482;2022-09-12T17:31:15;19.50;;;17.90;;
23682;SDS011;24897;53.514;10.482;2022-09-12T17:34:00;19.87;;;18.17;;
23682;SDS011;24897;53.514;10.482;2022-09-12T17:36:44;20.13;;;18.57;;
23682;SDS011;24897;53.514;10.482;2022-09-12T17:39:30;21.13;;;19.43;;
23682;SDS011;24897;53.514;10.482;2022-09-12T17:42:14;21.27;;;19.47;;
23682;SDS011;24897;53.514;10.482;2022-09-12T17:44:59;21.80;;;20.00;;
23682;SDS011;24897;53.514;10.482;2022-09-12T17:47:43;22.50;;;20.70;;
23682;SDS011;24897;53.514;10.482;2022-09-12T17:50:27;23.10;;;21.10;;
23682;SDS011;24897;53.514;10.482;2022-09-12T17:53:12;22.90;;;21.00;;
23682;SDS011;24897;53.514;10.482;2022-09-12T17:55:59;22.50;;;20.63;;
23682;SDS011;24897;53.514;10.482;2022-09-12T17:58:45;23.20;;;21.20;;
23682;SDS011;24897;53.514;10.482;2022-09-12T18:01:31;22.67;;;20.80;;
23682;SDS011;24897;53.514;10.482;2022-09-12T18:04:34;22.80;;;20.90;;
23682;SDS011;24897;53.514;10.482;2022-09-12T18:07:19;22.47;;;20.57;;
23682;SDS011;24897;53.514;10.482;2022-09-12T18:10:03;22.17;;;20.27;;
23682;SDS011;24897;53.514;10.482;2022-09-12T18:12:48;23.60;;;21.40;;